Latest Weather Observations for South Channel Island

IDV60901

Issued at 3:31 am EST Thursday 24 August 2017 (issued every 10 minutes, with the page automatically refreshed every 10 minutes)

About weather observations | Map of Melbourne area stations | Latest observations for Melbourne area | Other Formats
Station Details ID: 086344 Name: SOUTH CHANNEL ISLAND Lat: -38.31 Lon: 144.80 Height: 9.0 m
Data from the previous 72 hours. | See also: Recent months for locations in Victoria
Date/Time
EST
Temp
°C
App
Temp
°C
Dew
Point
°C
Rel
Hum
%
Delta-T
°C
Wind Press
QNH
hPa
Press
MSL
hPa
Rain since
9am
mm
Dir  Spd
km/h
Gust
km/h
Spd
kts
Gust
kts
24/03:30am - - - - - W 30 32 16 17 - - -
24/03:00am - - - - - W 28 32 15 17 - - -
24/02:30am - - - - - W 28 32 15 17 - - -
24/02:00am - - - - - W 30 33 16 18 - - -
24/01:30am - - - - - W 22 28 12 15 - - -
24/01:00am - - - - - WNW 22 26 12 14 - - -
24/12:30am - - - - - WSW 28 33 15 18 - - -
24/12:00am - - - - - W 26 30 14 16 - - -
 
Date/Time
EST
Temp
°C
App
Temp
°C
Dew
Point
°C
Rel
Hum
%
Delta-T
°C
Wind Press
QNH
hPa
Press
MSL
hPa
Rain since
9am
mm
Dir  Spd
km/h
Gust
km/h
Spd
kts
Gust
kts
23/11:30pm - - - - - W 20 24 11 13 - - -
23/11:00pm - - - - - SW 26 30 14 16 - - -
23/10:30pm - - - - - WSW 24 28 13 15 - - -
23/10:00pm - - - - - W 30 35 16 19 - - -
23/09:30pm - - - - - SW 15 20 8 11 - - -
23/09:00pm - - - - - W 33 48 18 26 - - -
23/08:30pm - - - - - WNW 33 39 18 21 - - -
23/08:00pm - - - - - WNW 30 33 16 18 - - -
23/07:30pm - - - - - WNW 33 41 18 22 - - -
23/07:00pm - - - - - WNW 33 39 18 21 - - -
23/06:30pm - - - - - NW 30 32 16 17 - - -
23/06:00pm - - - - - NW 26 32 14 17 - - -
23/05:30pm - - - - - WNW 19 20 10 11 - - -
23/05:00pm - - - - - WSW 24 32 13 17 - - -
23/04:30pm - - - - - SW 33 39 18 21 - - -
23/04:00pm - - - - - SW 37 43 20 23 - - -
23/03:30pm - - - - - SW 44 54 24 29 - - -
23/03:01pm - - - - - W 30 59 16 32 - - -
23/03:00pm - - - - - W 26 50 14 27 - - -
23/02:30pm - - - - - WNW 33 46 18 25 - - -
23/02:00pm - - - - - W 37 54 20 29 - - -
23/01:55pm - - - - - NW 32 52 17 28 - - -
23/01:54pm - - - - - NW 32 52 17 28 - - -
23/01:30pm - - - - - NW 32 35 17 19 - - -
23/01:00pm - - - - - NW 28 33 15 18 - - -
23/12:30pm - - - - - NW 28 30 15 16 - - -
23/12:00pm - - - - - NW 32 39 17 21 - - -
23/11:30am - - - - - NW 30 33 16 18 - - -
23/11:00am - - - - - NW 28 35 15 19 - - -
23/10:30am - - - - - NNW 28 32 15 17 - - -
23/10:00am - - - - - NNW 24 28 13 15 - - -
23/09:30am - - - - - NNW 19 26 10 14 - - -
23/09:00am - - - - - N 22 28 12 15 - - -
23/08:30am - - - - - N 32 35 17 19 - - -
23/08:00am - - - - - N 30 33 16 18 - - -
23/07:30am - - - - - N 32 39 17 21 - - -
23/07:00am - - - - - N 30 33 16 18 - - -
23/06:30am - - - - - N 28 33 15 18 - - -
23/06:00am - - - - - N 20 24 11 13 - - -
23/05:30am - - - - - N 26 30 14 16 - - -
23/05:00am - - - - - N 26 28 14 15 - - -
23/04:30am - - - - - N 22 26 12 14 - - -
23/04:00am - - - - - N 22 26 12 14 - - -
23/03:30am - - - - - NNW 24 28 13 15 - - -
23/03:00am - - - - - NNW 17 20 9 11 - - -
23/02:30am - - - - - NNW 20 28 11 15 - - -
23/02:00am - - - - - NNW 17 24 9 13 - - -
23/01:30am - - - - - NNW 24 30 13 16 - - -
23/01:00am - - - - - NNW 20 26 11 14 - - -
23/12:30am - - - - - NNW 22 28 12 15 - - -
23/12:00am - - - - - NW 26 30 14 16 - - -
 
Date/Time
EST
Temp
°C
App
Temp
°C
Dew
Point
°C
Rel
Hum
%
Delta-T
°C
Wind Press
QNH
hPa
Press
MSL
hPa
Rain since
9am
mm
Dir  Spd
km/h
Gust
km/h
Spd
kts
Gust
kts
22/11:30pm - - - - - NW 28 32 15 17 - - -
22/11:00pm - - - - - NW 20 24 11 13 - - -
22/10:30pm - - - - - NNW 17 22 9 12 - - -
22/10:00pm - - - - - NW 24 28 13 15 - - -
22/09:30pm - - - - - NW 26 28 14 15 - - -
22/09:00pm - - - - - NW 20 24 11 13 - - -
22/08:30pm - - - - - NW 22 26 12 14 - - -
22/08:00pm - - - - - WNW 28 32 15 17 - - -
22/07:30pm - - - - - NW 19 22 10 12 - - -
22/07:00pm - - - - - WNW 15 17 8 9 - - -
22/06:30pm - - - - - WNW 20 24 11 13 - - -
22/06:00pm - - - - - WNW 22 28 12 15 - - -
22/05:30pm - - - - - W 30 33 16 18 - - -
22/05:00pm - - - - - WNW 20 24 11 13 - - -
22/04:30pm - - - - - WNW 24 30 13 16 - - -
22/04:00pm - - - - - W 17 22 9 12 - - -
22/03:30pm - - - - - NW 15 19 8 10 - - -
22/03:00pm - - - - - W 22 26 12 14 - - -
22/02:30pm - - - - - W 15 17 8 9 - - -
22/02:00pm - - - - - WNW 22 28 12 15 - - -
22/01:30pm - - - - - WNW 22 30 12 16 - - -
22/01:00pm - - - - - N 6 13 3 7 - - -
22/12:30pm - - - - - N 9 13 5 7 - - -
22/12:00pm - - - - - NW 13 15 7 8 - - -
22/11:30am - - - - - N 15 17 8 9 - - -
22/11:00am - - - - - N 19 20 10 11 - - -
22/10:30am - - - - - N 20 24 11 13 - - -
22/10:00am - - - - - N 24 28 13 15 - - -
22/09:30am - - - - - N 24 28 13 15 - - -
22/09:00am - - - - - N 28 30 15 16 - - -
22/08:30am - - - - - N 22 26 12 14 - - -
22/08:00am - - - - - N 19 20 10 11 - - -
22/07:30am - - - - - NNW 11 13 6 7 - - -
22/07:00am - - - - - NNW 11 11 6 6 - - -
22/06:30am - - - - - NW 15 17 8 9 - - -
22/06:00am - - - - - NW 15 17 8 9 - - -
22/05:30am - - - - - NW 15 17 8 9 - - -
22/05:00am - - - - - NW 17 19 9 10 - - -
22/04:30am - - - - - NNW 20 24 11 13 - - -
22/04:00am - - - - - NNW 22 26 12 14 - - -
22/03:30am - - - - - NNW 26 28 14 15 - - -
22/03:00am - - - - - NNW 24 26 13 14 - - -
22/02:30am - - - - - NNW 19 22 10 12 - - -
22/02:00am - - - - - NNW 17 19 9 10 - - -
22/01:30am - - - - - NNW 17 19 9 10 - - -
22/01:00am - - - - - N 19 20 10 11 - - -
22/12:30am - - - - - NNW 19 22 10 12 - - -
22/12:00am - - - - - NNW 20 22 11 12 - - -
 
Date/Time
EST
Temp
°C
App
Temp
°C
Dew
Point
°C
Rel
Hum
%
Delta-T
°C
Wind Press
QNH
hPa
Press
MSL
hPa
Rain since
9am
mm
Dir  Spd
km/h
Gust
km/h
Spd
kts
Gust
kts
21/11:30pm - - - - - NNW 22 28 12 15 - - -
21/11:00pm - - - - - N 24 28 13 15 - - -
21/10:30pm - - - - - N 24 30 13 16 - - -
21/10:00pm - - - - - NNE 24 28 13 15 - - -
21/09:30pm - - - - - NE 22 28 12 15 - - -
21/09:00pm - - - - - NE 22 28 12 15 - - -
21/08:30pm - - - - - ENE 17 19 9 10 - - -
21/08:00pm - - - - - ENE 19 20 10 11 - - -
21/07:30pm - - - - - ENE 17 19 9 10 - - -
21/07:00pm - - - - - ENE 17 20 9 11 - - -
21/06:30pm - - - - - ENE 20 24 11 13 - - -
21/06:00pm - - - - - ENE 17 19 9 10 - - -
21/05:30pm - - - - - NE 19 20 10 11 - - -
21/05:00pm - - - - - NE 19 20 10 11 - - -
21/04:30pm - - - - - NE 24 26 13 14 - - -
21/04:00pm - - - - - NE 28 30 15 16 - - -
21/03:30pm - - - - - NE 26 30 14 16 - - -
21/03:00pm - - - - - NNE 26 30 14 16 - - -
21/02:30pm - - - - - NNE 22 28 12 15 - - -
21/02:00pm - - - - - N 20 26 11 14 - - -
21/01:30pm - - - - - NNE 20 26 11 14 - - -
21/01:00pm - - - - - NNE 26 28 14 15 - - -
21/12:30pm - - - - - N 28 32 15 17 - - -
21/12:00pm - - - - - N 28 32 15 17 - - -
21/11:30am - - - - - NNE 32 37 17 20 - - -
21/11:00am - - - - - N 33 39 18 21 - - -
21/10:30am - - - - - N 33 39 18 21 - - -
21/10:00am - - - - - N 35 41 19 22 - - -
21/09:30am - - - - - N 41 50 22 27 - - -
21/09:00am - - - - - N 35 44 19 24 - - -
21/08:30am - - - - - N 35 43 19 23 - - -
21/08:00am - - - - - N 35 41 19 22 - - -
21/07:30am - - - - - N 37 48 20 26 - - -
21/07:00am - - - - - N 30 35 16 19 - - -
21/06:30am - - - - - N 30 33 16 18 - - -
21/06:00am - - - - - N 30 35 16 19 - - -
21/05:30am - - - - - N 30 33 16 18 - - -
21/05:00am - - - - - N 33 41 18 22 - - -
21/04:30am - - - - - N 35 41 19 22 - - -
21/04:00am - - - - - N 35 43 19 23 - - -

Latest Capital City Observations: Canberra | Sydney | Melbourne | Brisbane | Adelaide | Perth | Hobart | Darwin

Other Formats:

Comma delimited format used in spreadsheet applications
http://www.bom.gov.au/fwo/IDV60901/IDV60901.94853.axf

JavaScript Object Notation format (JSON) in row-major order
http://www.bom.gov.au/fwo/IDV60901/IDV60901.94853.json